sensor_id;sensor_type;location;lat;lon;timestamp;temperature;humidity
15749;DHT22;7976;52.526;13.326;2022-12-18T00:01:38;-2.80;99.90
15749;DHT22;7976;52.526;13.326;2022-12-18T00:04:15;-2.80;99.90
15749;DHT22;7976;52.526;13.326;2022-12-18T00:06:46;-2.70;99.90
15749;DHT22;7976;52.526;13.326;2022-12-18T00:09:13;-2.80;99.90
15749;DHT22;7976;52.526;13.326;2022-12-18T00:11:41;-2.90;99.90
15749;DHT22;7976;52.526;13.326;2022-12-18T00:14:09;-3.00;99.90
15749;DHT22;7976;52.526;13.326;2022-12-18T00:16:38;-3.10;99.90
15749;DHT22;7976;52.526;13.326;2022-12-18T00:19:05;-3.20;99.90
15749;DHT22;7976;52.526;13.326;2022-12-18T00:21:33;-3.30;99.90
15749;DHT22;7976;52.526;13.326;2022-12-18T00:24:01;-3.20;99.90
15749;DHT22;7976;52.526;13.326;2022-12-18T00:26:29;-3.30;99.90
15749;DHT22;7976;52.526;13.326;2022-12-18T00:29:04;-3.30;99.90
15749;DHT22;7976;52.526;13.326;2022-12-18T00:31:33;-3.20;99.90
15749;DHT22;7976;52.526;13.326;2022-12-18T00:34:01;-3.20;99.90
15749;DHT22;7976;52.526;13.326;2022-12-18T00:36:29;-3.10;99.90
15749;DHT22;7976;52.526;13.326;2022-12-18T00:38:59;-3.10;99.90
15749;DHT22;7976;52.526;13.326;2022-12-18T00:41:27;-3.00;99.90
15749;DHT22;7976;52.526;13.326;2022-12-18T00:44:15;-3.00;99.90
15749;DHT22;7976;52.526;13.326;2022-12-18T00:46:44;-3.20;99.90
15749;DHT22;7976;52.526;13.326;2022-12-18T00:49:15;-3.30;99.90
15749;DHT22;7976;52.526;13.326;2022-12-18T00:51:43;-3.40;99.90
15749;DHT22;7976;52.526;13.326;2022-12-18T00:54:10;-3.50;99.90
15749;DHT22;7976;52.526;13.326;2022-12-18T00:56:38;-3.50;99.90
15749;DHT22;7976;52.526;13.326;2022-12-18T00:59:05;-3.50;99.90
15749;DHT22;7976;52.526;13.326;2022-12-18T01:01:34;-3.50;99.90
15749;DHT22;7976;52.526;13.326;2022-12-18T01:04:03;-3.50;99.90
15749;DHT22;7976;52.526;13.326;2022-12-18T01:06:31;-3.40;99.90
15749;DHT22;7976;52.526;13.326;2022-12-18T01:08:58;-3.50;99.90
15749;DHT22;7976;52.526;13.326;2022-12-18T01:11:25;-3.50;99.90
15749;DHT22;7976;52.526;13.326;2022-12-18T01:13:53;-3.50;99.90
15749;DHT22;7976;52.526;13.326;2022-12-18T01:16:22;-3.60;99.90
15749;DHT22;7976;52.526;13.326;2022-12-18T01:18:52;-3.60;99.90
15749;DHT22;7976;52.526;13.326;2022-12-18T01:21:22;-3.60;99.90
15749;DHT22;7976;52.526;13.326;2022-12-18T01:23:51;-3.70;99.90
15749;DHT22;7976;52.526;13.326;2022-12-18T01:26:19;-3.80;99.90
15749;DHT22;7976;52.526;13.326;2022-12-18T01:28:46;-3.90;99.90
15749;DHT22;7976;52.526;13.326;2022-12-18T01:31:16;-3.80;99.90
15749;DHT22;7976;52.526;13.326;2022-12-18T01:33:49;-3.80;99.90
15749;DHT22;7976;52.526;13.326;2022-12-18T01:36:20;-3.80;99.90
15749;DHT22;7976;52.526;13.326;2022-12-18T01:38:49;-3.70;99.90
15749;DHT22;7976;52.526;13.326;2022-12-18T01:41:20;-3.50;99.90
15749;DHT22;7976;52.526;13.326;2022-12-18T01:43:51;-3.40;99.90
15749;DHT22;7976;52.526;13.326;2022-12-18T01:46:21;-3.40;99.90
15749;DHT22;7976;52.526;13.326;2022-12-18T01:48:57;-3.40;99.90
15749;DHT22;7976;52.526;13.326;2022-12-18T01:51:29;-3.60;99.90
15749;DHT22;7976;52.526;13.326;2022-12-18T01:53:57;-3.60;99.90
15749;DHT22;7976;52.526;13.326;2022-12-18T01:56:25;-3.70;99.90
15749;DHT22;7976;52.526;13.326;2022-12-18T01:58:56;-3.70;99.90
15749;DHT22;7976;52.526;13.326;2022-12-18T02:01:29;-3.60;99.90
15749;DHT22;7976;52.526;13.326;2022-12-18T02:04:19;-3.60;99.90
15749;DHT22;7976;52.526;13.326;2022-12-18T02:06:51;-3.60;99.90
15749;DHT22;7976;52.526;13.326;2022-12-18T02:09:28;-3.60;99.90
15749;DHT22;7976;52.526;13.326;2022-12-18T02:12:04;-3.50;99.90
15749;DHT22;7976;52.526;13.326;2022-12-18T02:14:44;-3.40;99.90
15749;DHT22;7976;52.526;13.326;2022-12-18T02:17:18;-3.40;99.90
15749;DHT22;7976;52.526;13.326;2022-12-18T02:19:59;-3.40;99.90
15749;DHT22;7976;52.526;13.326;2022-12-18T02:22:44;-3.40;99.90
15749;DHT22;7976;52.526;13.326;2022-12-18T02:25:33;-3.40;99.90
15749;DHT22;7976;52.526;13.326;2022-12-18T02:28:13;-3.30;99.90
15749;DHT22;7976;52.526;13.326;2022-12-18T02:30:45;-3.30;99.90
15749;DHT22;7976;52.526;13.326;2022-12-18T02:33:15;-3.20;99.90
15749;DHT22;7976;52.526;13.326;2022-12-18T02:35:45;-3.20;99.90
15749;DHT22;7976;52.526;13.326;2022-12-18T02:38:14;-3.30;99.90
15749;DHT22;7976;52.526;13.326;2022-12-18T02:40:46;-3.20;99.90
15749;DHT22;7976;52.526;13.326;2022-12-18T02:43:18;-3.20;99.90
15749;DHT22;7976;52.526;13.326;2022-12-18T02:45:50;-3.20;99.90
15749;DHT22;7976;52.526;13.326;2022-12-18T02:48:23;-3.20;99.90
15749;DHT22;7976;52.526;13.326;2022-12-18T02:50:59;-3.20;99.90
15749;DHT22;7976;52.526;13.326;2022-12-18T02:53:39;-3.30;99.90
15749;DHT22;7976;52.526;13.326;2022-12-18T02:56:15;-3.30;99.90
15749;DHT22;7976;52.526;13.326;2022-12-18T02:58:55;-3.30;99.90
15749;DHT22;7976;52.526;13.326;2022-12-18T03:01:37;-3.30;99.90
15749;DHT22;7976;52.526;13.326;2022-12-18T03:04:11;-3.40;99.90
15749;DHT22;7976;52.526;13.326;2022-12-18T03:06:46;-3.40;99.90
15749;DHT22;7976;52.526;13.326;2022-12-18T03:09:20;-3.40;99.90
15749;DHT22;7976;52.526;13.326;2022-12-18T03:11:54;-3.40;99.90
15749;DHT22;7976;52.526;13.326;2022-12-18T03:14:45;-3.50;99.90
15749;DHT22;7976;52.526;13.326;2022-12-18T03:17:17;-3.50;99.90
15749;DHT22;7976;52.526;13.326;2022-12-18T03:19:52;-3.70;99.90
15749;DHT22;7976;52.526;13.326;2022-12-18T03:22:23;-3.80;99.90
15749;DHT22;7976;52.526;13.326;2022-12-18T03:24:54;-3.90;99.90
15749;DHT22;7976;52.526;13.326;2022-12-18T03:27:24;-3.90;99.90
15749;DHT22;7976;52.526;13.326;2022-12-18T03:30:01;-3.90;99.90
15749;DHT22;7976;52.526;13.326;2022-12-18T03:32:39;-4.00;99.90
15749;DHT22;7976;52.526;13.326;2022-12-18T03:35:11;-4.10;99.90
15749;DHT22;7976;52.526;13.326;2022-12-18T03:37:41;-4.10;99.90
15749;DHT22;7976;52.526;13.326;2022-12-18T03:40:09;-4.20;99.90
15749;DHT22;7976;52.526;13.326;2022-12-18T03:42:42;-4.20;99.90
15749;DHT22;7976;52.526;13.326;2022-12-18T03:45:22;-4.20;99.90
15749;DHT22;7976;52.526;13.326;2022-12-18T03:47:59;-4.30;99.90
15749;DHT22;7976;52.526;13.326;2022-12-18T03:50:39;-4.20;99.90
15749;DHT22;7976;52.526;13.326;2022-12-18T03:53:19;-4.20;99.90
15749;DHT22;7976;52.526;13.326;2022-12-18T03:55:55;-4.30;99.90
15749;DHT22;7976;52.526;13.326;2022-12-18T03:58:31;-4.20;99.90
15749;DHT22;7976;52.526;13.326;2022-12-18T04:01:16;-4.20;99.90
15749;DHT22;7976;52.526;13.326;2022-12-18T04:03:46;-4.10;99.90
15749;DHT22;7976;52.526;13.326;2022-12-18T04:06:18;-4.00;99.90
15749;DHT22;7976;52.526;13.326;2022-12-18T04:08:46;-4.10;99.90
15749;DHT22;7976;52.526;13.326;2022-12-18T04:11:17;-4.00;99.90
15749;DHT22;7976;52.526;13.326;2022-12-18T04:13:46;-3.90;99.90
15749;DHT22;7976;52.526;13.326;2022-12-18T04:16:20;-4.00;99.90
15749;DHT22;7976;52.526;13.326;2022-12-18T04:18:51;-4.10;99.90
15749;DHT22;7976;52.526;13.326;2022-12-18T04:21:20;-4.10;99.90
15749;DHT22;7976;52.526;13.326;2022-12-18T04:23:48;-4.00;99.90
15749;DHT22;7976;52.526;13.326;2022-12-18T04:26:18;-3.90;99.90
15749;DHT22;7976;52.526;13.326;2022-12-18T04:28:55;-3.90;99.90
15749;DHT22;7976;52.526;13.326;2022-12-18T04:31:23;-3.90;99.90
15749;DHT22;7976;52.526;13.326;2022-12-18T04:33:50;-4.00;99.90
15749;DHT22;7976;52.526;13.326;2022-12-18T04:36:17;-4.00;99.90
15749;DHT22;7976;52.526;13.326;2022-12-18T04:38:45;-4.00;99.90
15749;DHT22;7976;52.526;13.326;2022-12-18T04:41:14;-4.00;99.90
15749;DHT22;7976;52.526;13.326;2022-12-18T04:43:44;-4.00;99.90
15749;DHT22;7976;52.526;13.326;2022-12-18T04:46:11;-3.90;99.90
15749;DHT22;7976;52.526;13.326;2022-12-18T04:48:39;-3.80;99.90
15749;DHT22;7976;52.526;13.326;2022-12-18T04:51:06;-3.70;99.90
15749;DHT22;7976;52.526;13.326;2022-12-18T04:53:33;-3.80;99.90
15749;DHT22;7976;52.526;13.326;2022-12-18T04:56:07;-3.90;99.90
15749;DHT22;7976;52.526;13.326;2022-12-18T04:58:35;-3.90;99.90
15749;DHT22;7976;52.526;13.326;2022-12-18T05:01:03;-4.10;99.90
15749;DHT22;7976;52.526;13.326;2022-12-18T05:03:33;-4.10;99.90
15749;DHT22;7976;52.526;13.326;2022-12-18T05:06:02;-4.20;99.90
15749;DHT22;7976;52.526;13.326;2022-12-18T05:08:30;-4.20;99.90
15749;DHT22;7976;52.526;13.326;2022-12-18T05:11:01;-4.20;99.90
15749;DHT22;7976;52.526;13.326;2022-12-18T05:13:30;-4.10;99.90
15749;DHT22;7976;52.526;13.326;2022-12-18T05:15:57;-4.10;99.90
15749;DHT22;7976;52.526;13.326;2022-12-18T05:18:25;-4.00;99.90
15749;DHT22;7976;52.526;13.326;2022-12-18T05:20:53;-4.00;99.90
15749;DHT22;7976;52.526;13.326;2022-12-18T05:23:22;-4.00;99.90
15749;DHT22;7976;52.526;13.326;2022-12-18T05:25:51;-4.10;99.90
15749;DHT22;7976;52.526;13.326;2022-12-18T05:28:18;-4.10;99.90
15749;DHT22;7976;52.526;13.326;2022-12-18T05:30:48;-4.20;99.90
15749;DHT22;7976;52.526;13.326;2022-12-18T05:33:16;-4.20;99.90
15749;DHT22;7976;52.526;13.326;2022-12-18T05:35:43;-4.30;99.90
15749;DHT22;7976;52.526;13.326;2022-12-18T05:38:10;-4.30;99.90
15749;DHT22;7976;52.526;13.326;2022-12-18T05:40:41;-4.30;99.90
15749;DHT22;7976;52.526;13.326;2022-12-18T05:43:09;-4.30;99.90
15749;DHT22;7976;52.526;13.326;2022-12-18T05:45:36;-4.20;99.90
15749;DHT22;7976;52.526;13.326;2022-12-18T05:48:05;-4.10;99.90
15749;DHT22;7976;52.526;13.326;2022-12-18T05:50:34;-4.00;99.90
15749;DHT22;7976;52.526;13.326;2022-12-18T05:53:01;-4.00;99.90
15749;DHT22;7976;52.526;13.326;2022-12-18T05:55:28;-3.90;99.90
15749;DHT22;7976;52.526;13.326;2022-12-18T05:57:56;-3.90;99.90
15749;DHT22;7976;52.526;13.326;2022-12-18T06:00:23;-4.00;99.90
15749;DHT22;7976;52.526;13.326;2022-12-18T06:02:49;-4.10;99.90
15749;DHT22;7976;52.526;13.326;2022-12-18T06:05:16;-4.20;99.90
15749;DHT22;7976;52.526;13.326;2022-12-18T06:07:43;-4.30;99.90
15749;DHT22;7976;52.526;13.326;2022-12-18T06:10:10;-4.20;99.90
15749;DHT22;7976;52.526;13.326;2022-12-18T06:12:37;-4.10;99.90
15749;DHT22;7976;52.526;13.326;2022-12-18T06:15:06;-4.10;99.90
15749;DHT22;7976;52.526;13.326;2022-12-18T06:17:34;-4.00;99.90
15749;DHT22;7976;52.526;13.326;2022-12-18T06:20:02;-3.90;99.90
15749;DHT22;7976;52.526;13.326;2022-12-18T06:22:31;-4.00;99.90
15749;DHT22;7976;52.526;13.326;2022-12-18T06:24:58;-4.00;99.90
15749;DHT22;7976;52.526;13.326;2022-12-18T06:27:25;-4.10;99.90
15749;DHT22;7976;52.526;13.326;2022-12-18T06:29:52;-4.20;99.90
15749;DHT22;7976;52.526;13.326;2022-12-18T06:32:20;-4.20;99.90
15749;DHT22;7976;52.526;13.326;2022-12-18T06:34:47;-4.30;99.90
15749;DHT22;7976;52.526;13.326;2022-12-18T06:37:14;-4.30;99.90
15749;DHT22;7976;52.526;13.326;2022-12-18T06:39:41;-4.40;99.90
15749;DHT22;7976;52.526;13.326;2022-12-18T06:42:07;-4.40;99.90
15749;DHT22;7976;52.526;13.326;2022-12-18T06:44:34;-4.40;99.90
15749;DHT22;7976;52.526;13.326;2022-12-18T06:47:01;-4.30;99.90
15749;DHT22;7976;52.526;13.326;2022-12-18T06:49:29;-4.30;99.90
15749;DHT22;7976;52.526;13.326;2022-12-18T06:51:56;-4.30;99.90
15749;DHT22;7976;52.526;13.326;2022-12-18T06:54:23;-4.30;99.90
15749;DHT22;7976;52.526;13.326;2022-12-18T06:56:49;-4.30;99.90
15749;DHT22;7976;52.526;13.326;2022-12-18T06:59:16;-4.20;99.90
15749;DHT22;7976;52.526;13.326;2022-12-18T07:01:43;-4.20;99.90
15749;DHT22;7976;52.526;13.326;2022-12-18T07:04:10;-4.20;99.90
15749;DHT22;7976;52.526;13.326;2022-12-18T07:06:38;-4.20;99.90
15749;DHT22;7976;52.526;13.326;2022-12-18T07:09:05;-4.20;99.90
15749;DHT22;7976;52.526;13.326;2022-12-18T07:11:32;-4.10;99.90
15749;DHT22;7976;52.526;13.326;2022-12-18T07:13:59;-4.20;99.90
15749;DHT22;7976;52.526;13.326;2022-12-18T07:16:26;-4.20;99.90
15749;DHT22;7976;52.526;13.326;2022-12-18T07:18:55;-4.20;99.90
15749;DHT22;7976;52.526;13.326;2022-12-18T07:21:23;-4.20;99.90
15749;DHT22;7976;52.526;13.326;2022-12-18T07:23:52;-4.20;99.90
15749;DHT22;7976;52.526;13.326;2022-12-18T07:26:20;-4.20;99.90
15749;DHT22;7976;52.526;13.326;2022-12-18T07:28:48;-4.10;99.90
15749;DHT22;7976;52.526;13.326;2022-12-18T07:31:18;-4.00;99.90
15749;DHT22;7976;52.526;13.326;2022-12-18T07:33:46;-4.10;99.90
15749;DHT22;7976;52.526;13.326;2022-12-18T07:36:14;-4.00;99.90
15749;DHT22;7976;52.526;13.326;2022-12-18T07:38:41;-4.00;99.90
15749;DHT22;7976;52.526;13.326;2022-12-18T07:41:12;-4.00;99.90
15749;DHT22;7976;52.526;13.326;2022-12-18T07:43:40;-4.10;99.90
15749;DHT22;7976;52.526;13.326;2022-12-18T07:46:08;-4.10;99.90
15749;DHT22;7976;52.526;13.326;2022-12-18T07:48:35;-4.20;99.90
15749;DHT22;7976;52.526;13.326;2022-12-18T07:51:04;-4.10;99.90
15749;DHT22;7976;52.526;13.326;2022-12-18T07:53:34;-4.00;99.90
15749;DHT22;7976;52.526;13.326;2022-12-18T07:56:04;-4.10;99.90
15749;DHT22;7976;52.526;13.326;2022-12-18T07:58:34;-4.20;99.90
15749;DHT22;7976;52.526;13.326;2022-12-18T08:01:03;-4.20;99.90
15749;DHT22;7976;52.526;13.326;2022-12-18T08:03:31;-4.20;99.90
15749;DHT22;7976;52.526;13.326;2022-12-18T08:06:02;-4.30;99.90
15749;DHT22;7976;52.526;13.326;2022-12-18T08:08:30;-4.30;99.90
15749;DHT22;7976;52.526;13.326;2022-12-18T08:10:58;-4.20;99.90
15749;DHT22;7976;52.526;13.326;2022-12-18T08:13:25;-4.20;99.90
15749;DHT22;7976;52.526;13.326;2022-12-18T08:15:57;-4.30;99.90
15749;DHT22;7976;52.526;13.326;2022-12-18T08:18:24;-4.30;99.90
15749;DHT22;7976;52.526;13.326;2022-12-18T08:20:51;-4.30;99.90
15749;DHT22;7976;52.526;13.326;2022-12-18T08:23:18;-4.20;99.90
15749;DHT22;7976;52.526;13.326;2022-12-18T08:25:45;-4.20;99.90
15749;DHT22;7976;52.526;13.326;2022-12-18T08:28:12;-4.10;99.90
15749;DHT22;7976;52.526;13.326;2022-12-18T08:30:39;-4.00;99.90
15749;DHT22;7976;52.526;13.326;2022-12-18T08:33:07;-4.00;99.90
15749;DHT22;7976;52.526;13.326;2022-12-18T08:35:35;-4.10;99.90
15749;DHT22;7976;52.526;13.326;2022-12-18T08:38:03;-4.10;99.90
15749;DHT22;7976;52.526;13.326;2022-12-18T08:40:30;-4.10;99.90
15749;DHT22;7976;52.526;13.326;2022-12-18T08:42:56;-4.00;99.90
15749;DHT22;7976;52.526;13.326;2022-12-18T08:45:41;-4.00;99.90
15749;DHT22;7976;52.526;13.326;2022-12-18T08:48:09;-4.00;99.90
15749;DHT22;7976;52.526;13.326;2022-12-18T08:50:36;-3.90;99.90
15749;DHT22;7976;52.526;13.326;2022-12-18T08:53:03;-4.00;99.90
15749;DHT22;7976;52.526;13.326;2022-12-18T08:55:30;-4.00;99.90
15749;DHT22;7976;52.526;13.326;2022-12-18T08:57:57;-4.00;99.90
15749;DHT22;7976;52.526;13.326;2022-12-18T09:00:24;-4.00;99.90
15749;DHT22;7976;52.526;13.326;2022-12-18T09:02:51;-4.00;99.90
15749;DHT22;7976;52.526;13.326;2022-12-18T09:05:19;-4.00;99.90
15749;DHT22;7976;52.526;13.326;2022-12-18T09:07:45;-4.00;99.90
15749;DHT22;7976;52.526;13.326;2022-12-18T09:10:12;-3.90;99.90
15749;DHT22;7976;52.526;13.326;2022-12-18T09:12:39;-3.80;99.90
15749;DHT22;7976;52.526;13.326;2022-12-18T09:15:06;-3.80;99.90
15749;DHT22;7976;52.526;13.326;2022-12-18T09:17:33;-3.80;99.90
15749;DHT22;7976;52.526;13.326;2022-12-18T09:20:00;-3.80;99.90
15749;DHT22;7976;52.526;13.326;2022-12-18T09:22:28;-3.80;99.90
15749;DHT22;7976;52.526;13.326;2022-12-18T09:24:55;-3.80;99.90
15749;DHT22;7976;52.526;13.326;2022-12-18T09:27:22;-3.80;99.90
15749;DHT22;7976;52.526;13.326;2022-12-18T09:29:49;-3.70;99.90
15749;DHT22;7976;52.526;13.326;2022-12-18T09:32:15;-3.70;99.90
15749;DHT22;7976;52.526;13.326;2022-12-18T09:34:42;-3.70;99.90
15749;DHT22;7976;52.526;13.326;2022-12-18T09:37:09;-3.70;99.90
15749;DHT22;7976;52.526;13.326;2022-12-18T09:39:38;-3.60;99.90
15749;DHT22;7976;52.526;13.326;2022-12-18T09:42:05;-3.60;99.90
15749;DHT22;7976;52.526;13.326;2022-12-18T09:44:35;-3.60;99.90
15749;DHT22;7976;52.526;13.326;2022-12-18T09:47:09;-3.70;99.90
15749;DHT22;7976;52.526;13.326;2022-12-18T09:49:43;-3.70;99.90
15749;DHT22;7976;52.526;13.326;2022-12-18T09:52:19;-3.70;99.90
15749;DHT22;7976;52.526;13.326;2022-12-18T09:54:54;-3.70;99.90
15749;DHT22;7976;52.526;13.326;2022-12-18T09:57:26;-3.60;99.90
15749;DHT22;7976;52.526;13.326;2022-12-18T10:00:00;-3.60;99.90
15749;DHT22;7976;52.526;13.326;2022-12-18T10:02:37;-3.50;99.90
15749;DHT22;7976;52.526;13.326;2022-12-18T10:05:07;-3.40;99.90
15749;DHT22;7976;52.526;13.326;2022-12-18T10:07:53;-3.40;99.90
15749;DHT22;7976;52.526;13.326;2022-12-18T10:10:34;-3.50;99.90
15749;DHT22;7976;52.526;13.326;2022-12-18T10:13:12;-3.40;99.90
15749;DHT22;7976;52.526;13.326;2022-12-18T10:15:54;-3.30;99.90
15749;DHT22;7976;52.526;13.326;2022-12-18T10:18:59;-3.30;99.90
15749;DHT22;7976;52.526;13.326;2022-12-18T10:21:39;-3.20;99.90
15749;DHT22;7976;52.526;13.326;2022-12-18T10:24:21;-3.10;99.90
15749;DHT22;7976;52.526;13.326;2022-12-18T10:27:04;-3.10;99.90
15749;DHT22;7976;52.526;13.326;2022-12-18T10:29:43;-3.10;99.90
15749;DHT22;7976;52.526;13.326;2022-12-18T10:32:18;-3.10;99.90
15749;DHT22;7976;52.526;13.326;2022-12-18T10:34:47;-3.10;99.90
15749;DHT22;7976;52.526;13.326;2022-12-18T10:37:18;-3.00;99.90
15749;DHT22;7976;52.526;13.326;2022-12-18T10:40:06;-3.00;99.90
15749;DHT22;7976;52.526;13.326;2022-12-18T10:42:39;-3.00;99.90
15749;DHT22;7976;52.526;13.326;2022-12-18T10:45:10;-2.90;99.90
15749;DHT22;7976;52.526;13.326;2022-12-18T10:47:43;-2.90;99.90
15749;DHT22;7976;52.526;13.326;2022-12-18T10:50:26;-2.90;99.90
15749;DHT22;7976;52.526;13.326;2022-12-18T10:52:58;-2.90;99.90
15749;DHT22;7976;52.526;13.326;2022-12-18T10:55:31;-2.80;99.90
15749;DHT22;7976;52.526;13.326;2022-12-18T10:58:18;-2.70;99.90
15749;DHT22;7976;52.526;13.326;2022-12-18T11:01:04;-2.60;99.90
15749;DHT22;7976;52.526;13.326;2022-12-18T11:03:35;-2.60;99.90
15749;DHT22;7976;52.526;13.326;2022-12-18T11:06:06;-2.60;99.90
15749;DHT22;7976;52.526;13.326;2022-12-18T11:08:35;-2.50;99.90
15749;DHT22;7976;52.526;13.326;2022-12-18T11:11:06;-2.50;99.90
15749;DHT22;7976;52.526;13.326;2022-12-18T11:13:51;-2.40;99.90
15749;DHT22;7976;52.526;13.326;2022-12-18T11:16:26;-2.40;99.90
15749;DHT22;7976;52.526;13.326;2022-12-18T11:19:13;-2.40;99.90
15749;DHT22;7976;52.526;13.326;2022-12-18T11:21:47;-2.50;99.90
15749;DHT22;7976;52.526;13.326;2022-12-18T11:24:27;-2.50;99.90
15749;DHT22;7976;52.526;13.326;2022-12-18T11:26:57;-2.50;99.90
15749;DHT22;7976;52.526;13.326;2022-12-18T11:29:36;-2.40;99.90
15749;DHT22;7976;52.526;13.326;2022-12-18T11:32:31;-2.40;99.90
15749;DHT22;7976;52.526;13.326;2022-12-18T11:35:10;-2.30;99.90
15749;DHT22;7976;52.526;13.326;2022-12-18T11:37:47;-2.30;99.90
15749;DHT22;7976;52.526;13.326;2022-12-18T11:40:24;-2.30;99.90
15749;DHT22;7976;52.526;13.326;2022-12-18T11:43:01;-2.30;99.90
15749;DHT22;7976;52.526;13.326;2022-12-18T11:45:37;-2.40;99.90
15749;DHT22;7976;52.526;13.326;2022-12-18T11:48:14;-2.40;99.90
15749;DHT22;7976;52.526;13.326;2022-12-18T11:50:49;-2.40;99.90
15749;DHT22;7976;52.526;13.326;2022-12-18T11:53:18;-2.30;99.90
15749;DHT22;7976;52.526;13.326;2022-12-18T11:55:57;-2.30;99.90
15749;DHT22;7976;52.526;13.326;2022-12-18T11:58:45;-2.20;99.90
15749;DHT22;7976;52.526;13.326;2022-12-18T12:01:32;-2.20;99.90
15749;DHT22;7976;52.526;13.326;2022-12-18T12:04:36;-2.10;99.90
15749;DHT22;7976;52.526;13.326;2022-12-18T12:07:21;-2.20;99.90
15749;DHT22;7976;52.526;13.326;2022-12-18T12:10:06;-2.20;99.90
15749;DHT22;7976;52.526;13.326;2022-12-18T12:12:56;-2.20;99.90
15749;DHT22;7976;52.526;13.326;2022-12-18T12:15:42;-2.20;99.90
15749;DHT22;7976;52.526;13.326;2022-12-18T12:18:28;-2.20;99.90
15749;DHT22;7976;52.526;13.326;2022-12-18T12:21:09;-2.10;99.90
15749;DHT22;7976;52.526;13.326;2022-12-18T12:23:49;-2.00;99.90
15749;DHT22;7976;52.526;13.326;2022-12-18T12:26:26;-1.90;99.90
15749;DHT22;7976;52.526;13.326;2022-12-18T12:29:06;-1.90;99.90
15749;DHT22;7976;52.526;13.326;2022-12-18T12:31:57;-1.80;99.90
15749;DHT22;7976;52.526;13.326;2022-12-18T12:34:44;-1.80;99.90
15749;DHT22;7976;52.526;13.326;2022-12-18T12:37:30;-1.90;99.90
15749;DHT22;7976;52.526;13.326;2022-12-18T12:40:12;-2.00;99.90
15749;DHT22;7976;52.526;13.326;2022-12-18T12:42:47;-2.10;99.90
15749;DHT22;7976;52.526;13.326;2022-12-18T12:45:38;-2.00;99.90
15749;DHT22;7976;52.526;13.326;2022-12-18T12:48:17;-2.10;99.90
15749;DHT22;7976;52.526;13.326;2022-12-18T12:50:52;-2.20;99.90
15749;DHT22;7976;52.526;13.326;2022-12-18T12:53:26;-2.20;99.90
15749;DHT22;7976;52.526;13.326;2022-12-18T12:55:59;-2.20;99.90
15749;DHT22;7976;52.526;13.326;2022-12-18T12:58:34;-2.20;99.90
15749;DHT22;7976;52.526;13.326;2022-12-18T13:01:12;-2.30;99.90
15749;DHT22;7976;52.526;13.326;2022-12-18T13:03:56;-2.30;99.90
15749;DHT22;7976;52.526;13.326;2022-12-18T13:06:40;-2.40;99.90
15749;DHT22;7976;52.526;13.326;2022-12-18T13:09:13;-2.40;99.90
15749;DHT22;7976;52.526;13.326;2022-12-18T13:11:41;-2.30;99.90
15749;DHT22;7976;52.526;13.326;2022-12-18T13:14:30;-2.30;99.90
15749;DHT22;7976;52.526;13.326;2022-12-18T13:17:15;-2.30;99.90
15749;DHT22;7976;52.526;13.326;2022-12-18T13:20:05;-2.30;99.90
15749;DHT22;7976;52.526;13.326;2022-12-18T13:22:37;-2.20;99.90
15749;DHT22;7976;52.526;13.326;2022-12-18T13:25:30;-2.20;99.90
15749;DHT22;7976;52.526;13.326;2022-12-18T13:28:07;-2.30;99.90
15749;DHT22;7976;52.526;13.326;2022-12-18T13:30:48;-2.30;99.90
15749;DHT22;7976;52.526;13.326;2022-12-18T13:33:47;-2.30;99.90
15749;DHT22;7976;52.526;13.326;2022-12-18T13:36:29;-2.30;99.90
15749;DHT22;7976;52.526;13.326;2022-12-18T13:39:24;-2.30;99.90
15749;DHT22;7976;52.526;13.326;2022-12-18T13:42:40;-2.40;99.90
15749;DHT22;7976;52.526;13.326;2022-12-18T13:45:45;-2.30;99.90
15749;DHT22;7976;52.526;13.326;2022-12-18T13:48:21;-2.30;99.90
15749;DHT22;7976;52.526;13.326;2022-12-18T13:50:55;-2.40;99.90
15749;DHT22;7976;52.526;13.326;2022-12-18T13:53:27;-2.30;99.90
15749;DHT22;7976;52.526;13.326;2022-12-18T13:55:59;-2.30;99.90
15749;DHT22;7976;52.526;13.326;2022-12-18T13:58:26;-2.30;99.90
15749;DHT22;7976;52.526;13.326;2022-12-18T14:00:53;-2.20;99.90
15749;DHT22;7976;52.526;13.326;2022-12-18T14:03:22;-2.20;99.90
15749;DHT22;7976;52.526;13.326;2022-12-18T14:05:56;-2.30;99.90
15749;DHT22;7976;52.526;13.326;2022-12-18T14:08:37;-2.30;99.90
15749;DHT22;7976;52.526;13.326;2022-12-18T14:11:07;-2.30;99.90
15749;DHT22;7976;52.526;13.326;2022-12-18T14:13:46;-2.30;99.90
15749;DHT22;7976;52.526;13.326;2022-12-18T14:16:15;-2.30;99.90
15749;DHT22;7976;52.526;13.326;2022-12-18T14:18:46;-2.30;99.90
15749;DHT22;7976;52.526;13.326;2022-12-18T14:21:21;-2.40;99.90
15749;DHT22;7976;52.526;13.326;2022-12-18T14:24:03;-2.40;99.90
15749;DHT22;7976;52.526;13.326;2022-12-18T14:26:41;-2.40;99.90
15749;DHT22;7976;52.526;13.326;2022-12-18T14:29:24;-2.40;99.90
15749;DHT22;7976;52.526;13.326;2022-12-18T14:32:10;-2.40;99.90
15749;DHT22;7976;52.526;13.326;2022-12-18T14:34:42;-2.50;99.90
15749;DHT22;7976;52.526;13.326;2022-12-18T14:37:10;-2.50;99.90
15749;DHT22;7976;52.526;13.326;2022-12-18T14:39:37;-2.50;99.90
15749;DHT22;7976;52.526;13.326;2022-12-18T14:42:09;-2.60;99.90
15749;DHT22;7976;52.526;13.326;2022-12-18T14:44:36;-2.60;99.90
15749;DHT22;7976;52.526;13.326;2022-12-18T14:47:03;-2.60;99.90
15749;DHT22;7976;52.526;13.326;2022-12-18T14:49:32;-2.60;99.90
15749;DHT22;7976;52.526;13.326;2022-12-18T14:52:04;-2.60;99.90
15749;DHT22;7976;52.526;13.326;2022-12-18T14:54:34;-2.60;99.90
15749;DHT22;7976;52.526;13.326;2022-12-18T14:57:14;-2.60;99.90
15749;DHT22;7976;52.526;13.326;2022-12-18T14:59:47;-2.60;99.90
15749;DHT22;7976;52.526;13.326;2022-12-18T15:02:18;-2.60;99.90
15749;DHT22;7976;52.526;13.326;2022-12-18T15:05:00;-2.50;99.90
15749;DHT22;7976;52.526;13.326;2022-12-18T15:07:40;-2.50;99.90
15749;DHT22;7976;52.526;13.326;2022-12-18T15:10:11;-2.50;99.90
15749;DHT22;7976;52.526;13.326;2022-12-18T15:12:42;-2.50;99.90
15749;DHT22;7976;52.526;13.326;2022-12-18T15:15:44;-2.50;99.90
15749;DHT22;7976;52.526;13.326;2022-12-18T15:18:13;-2.60;99.90
15749;DHT22;7976;52.526;13.326;2022-12-18T15:20:44;-2.60;99.90
15749;DHT22;7976;52.526;13.326;2022-12-18T15:23:16;-2.70;99.90
15749;DHT22;7976;52.526;13.326;2022-12-18T15:25:46;-2.70;99.90
15749;DHT22;7976;52.526;13.326;2022-12-18T15:28:22;-2.80;99.90
15749;DHT22;7976;52.526;13.326;2022-12-18T15:31:23;-2.80;99.90
15749;DHT22;7976;52.526;13.326;2022-12-18T15:34:12;-2.90;99.90
15749;DHT22;7976;52.526;13.326;2022-12-18T15:36:44;-2.90;99.90
15749;DHT22;7976;52.526;13.326;2022-12-18T15:39:12;-2.90;99.90
15749;DHT22;7976;52.526;13.326;2022-12-18T15:41:39;-2.90;99.90
15749;DHT22;7976;52.526;13.326;2022-12-18T15:44:28;-3.00;99.90
15749;DHT22;7976;52.526;13.326;2022-12-18T15:46:54;-2.90;99.90
15749;DHT22;7976;52.526;13.326;2022-12-18T15:49:20;-2.90;99.90
15749;DHT22;7976;52.526;13.326;2022-12-18T15:51:50;-2.80;99.90
15749;DHT22;7976;52.526;13.326;2022-12-18T15:54:19;-2.90;99.90
15749;DHT22;7976;52.526;13.326;2022-12-18T15:57:09;-2.90;99.90
15749;DHT22;7976;52.526;13.326;2022-12-18T15:59:54;-2.90;99.90
15749;DHT22;7976;52.526;13.326;2022-12-18T16:02:23;-2.80;99.90
15749;DHT22;7976;52.526;13.326;2022-12-18T16:04:51;-2.80;99.90
15749;DHT22;7976;52.526;13.326;2022-12-18T16:07:19;-2.70;99.90